Rankings de siempre
Mejores tiempos personales válidos de atleta a través de todos los eventos y temporadas. Cada atleta aparece una vez por división.
Busca por nombre y abre la página donde está clasificado este récord de división.
105,335 atletas clasificados
| Pos. | Pos. AG | Atleta | Nacionalidad | Categoría de edad | TiempoMejor tiempo | Diferencia |
|---|---|---|---|---|---|---|
| 89576 | #6497 | Ceire RheinIRL · W 45-49 · AG #6497 | IRL | W 45-49 | 1:57:38 | +78:02 |
| 89577 | #21705 | Kate MartinUSA · W 25-29 · AG #21705 | USA | W 25-29 | 1:57:38 | +78:02 |
| 89578 | #12531 | Rebecca AlthausGER · W 16-24 · AG #12531 | GER | W 16-24 | 1:57:38 | +78:02 |
| 89579 | #16532 | PAILIN SALEEPOLETHA · W 35-39 · AG #16532 | THA | W 35-39 | 1:57:38 | +78:02 |
| 89580 | #12532 | Gabrielle JimenezGBR · W 16-24 · AG #12532 | GBR | W 16-24 | 1:57:38 | +78:02 |
| 89581 | #21438 | Jia Zhen TeohMAS · W 30-34 · AG #21438 | MAS | W 30-34 | 1:57:38 | +78:02 |
| 89582 | #21706 | Erica AllenAUS · W 25-29 · AG #21706 | AUS | W 25-29 | 1:57:38 | +78:02 |
| 89583 | #12533 | Lila KellyAUS · W 16-24 · AG #12533 | AUS | W 16-24 | 1:57:38 | +78:02 |
| 89584 | #12534 | Thalia Maria KrijgerNED · W 16-24 · AG #12534 | NED | W 16-24 | 1:57:38 | +78:02 |
| 89585 | #21707 | Melany BarbosaMEX · W 25-29 · AG #21707 | MEX | W 25-29 | 1:57:38 | +78:02 |
| 89586 | #21439 | Pauline AH-HOTFRA · W 30-34 · AG #21439 | FRA | W 30-34 | 1:57:38 | +78:02 |
| 89587 | #16533 | Mitra VijapurapuGBR · W 35-39 · AG #16533 | GBR | W 35-39 | 1:57:38 | +78:02 |
| 89588 | #3115 | Angela HardingGBR · W 50-54 · AG #3115 | GBR | W 50-54 | 1:57:39 | +78:03 |
| 89589 | #21708 | Leah AldredGBR · W 25-29 · AG #21708 | GBR | W 25-29 | 1:57:39 | +78:03 |
| 89590 | #6498 | Yvonne Salzmann BalzerGER · W 45-49 · AG #6498 | GER | W 45-49 | 1:57:39 | +78:03 |
| 89591 | #12535 | Amelia BennettGBR · W 16-24 · AG #12535 | GBR | W 16-24 | 1:57:39 | +78:03 |
| 89592 | #11590 | Cordelia MapfumoZIM · W 40-44 · AG #11590 | ZIM | W 40-44 | 1:57:39 | +78:03 |
| 89593 | #21440 | Lauren HummelCAN · W 30-34 · AG #21440 | CAN | W 30-34 | 1:57:39 | +78:03 |
| 89594 | #21709 | Rebecca BurrowsGBR · W 25-29 · AG #21709 | GBR | W 25-29 | 1:57:39 | +78:03 |
| 89595 | #21710 | Vanessa Urquizo HollanderUSA · W 25-29 · AG #21710 | USA | W 25-29 | 1:57:39 | +78:03 |
| 89596 | #21711 | Constance BelmontetFRA · W 25-29 · AG #21711 | FRA | W 25-29 | 1:57:39 | +78:03 |
| 89597 | #12536 | Manon Dewaest-FaureFRA · W 16-24 · AG #12536 | FRA | W 16-24 | 1:57:39 | +78:03 |
| 89598 | #21441 | Carrie WestUSA · W 30-34 · AG #21441 | USA | W 30-34 | 1:57:39 | +78:03 |
| 89599 | #21712 | 淼 商CHN · W 25-29 · AG #21712 | CHN | W 25-29 | 1:57:39 | +78:03 |
| 89600 | #3116 | Catherine VanerisGBR · W 50-54 · AG #3116 | GBR | W 50-54 | 1:57:39 | +78:03 |
Página 3,584 de 4,214